sensor_id;sensor_type;location;lat;lon;timestamp;pressure;altitude;pressure_sealevel;temperature
69364;BMP280;56526;55.406;86.130;2022-10-30T00:00:44;99965.78;;;-2.15
69364;BMP280;56526;55.406;86.130;2022-10-30T00:03:12;99960.78;;;-2.17
69364;BMP280;56526;55.406;86.130;2022-10-30T00:05:44;99958.56;;;-2.20
69364;BMP280;56526;55.406;86.130;2022-10-30T00:08:13;99961.38;;;-2.21
69364;BMP280;56526;55.406;86.130;2022-10-30T00:10:41;99960.56;;;-2.22
69364;BMP280;56526;55.406;86.130;2022-10-30T00:13:13;99966.72;;;-2.23
69364;BMP280;56526;55.406;86.130;2022-10-30T00:15:39;99954.94;;;-2.25
69364;BMP280;56526;55.406;86.130;2022-10-30T00:18:15;99957.72;;;-2.27
69364;BMP280;56526;55.406;86.130;2022-10-30T00:20:41;99944.97;;;-2.29
69364;BMP280;56526;55.406;86.130;2022-10-30T00:23:07;99956.31;;;-2.30
69364;BMP280;56526;55.406;86.130;2022-10-30T00:25:35;99964.25;;;-2.31
69364;BMP280;56526;55.406;86.130;2022-10-30T00:28:06;99958.28;;;-2.32
69364;BMP280;56526;55.406;86.130;2022-10-30T00:30:33;99961.03;;;-2.33
69364;BMP280;56526;55.406;86.130;2022-10-30T00:33:02;99951.66;;;-2.34
69364;BMP280;56526;55.406;86.130;2022-10-30T00:35:28;99955.44;;;-2.37
69364;BMP280;56526;55.406;86.130;2022-10-30T00:37:55;99956.63;;;-2.39
69364;BMP280;56526;55.406;86.130;2022-10-30T00:40:22;99952.78;;;-2.43
69364;BMP280;56526;55.406;86.130;2022-10-30T00:42:48;99952.38;;;-2.47
69364;BMP280;56526;55.406;86.130;2022-10-30T00:45:16;99952.56;;;-2.48
69364;BMP280;56526;55.406;86.130;2022-10-30T00:50:26;99949.13;;;-2.56
69364;BMP280;56526;55.406;86.130;2022-10-30T00:53:08;99959.88;;;-2.59
69364;BMP280;56526;55.406;86.130;2022-10-30T00:55:39;99952.47;;;-2.62
69364;BMP280;56526;55.406;86.130;2022-10-30T00:58:37;99958.97;;;-2.66
69364;BMP280;56526;55.406;86.130;2022-10-30T01:01:08;99956.59;;;-2.67
69364;BMP280;56526;55.406;86.130;2022-10-30T01:03:37;99951.41;;;-2.67
69364;BMP280;56526;55.406;86.130;2022-10-30T01:06:08;99952.41;;;-2.68
69364;BMP280;56526;55.406;86.130;2022-10-30T01:08:36;99951.75;;;-2.70
69364;BMP280;56526;55.406;86.130;2022-10-30T01:11:03;99963.31;;;-2.73
69364;BMP280;56526;55.406;86.130;2022-10-30T01:13:32;99952.34;;;-2.75
69364;BMP280;56526;55.406;86.130;2022-10-30T01:21:50;99947.94;;;-2.74
69364;BMP280;56526;55.406;86.130;2022-10-30T01:25:00;99945.97;;;-2.72
69364;BMP280;56526;55.406;86.130;2022-10-30T01:27:58;99952.59;;;-2.70
69364;BMP280;56526;55.406;86.130;2022-10-30T01:30:39;99948.00;;;-2.68
69364;BMP280;56526;55.406;86.130;2022-10-30T01:36:50;99951.06;;;-2.64
69364;BMP280;56526;55.406;86.130;2022-10-30T01:39:32;99953.88;;;-2.59
69364;BMP280;56526;55.406;86.130;2022-10-30T01:42:08;99951.91;;;-2.57
69364;BMP280;56526;55.406;86.130;2022-10-30T01:44:35;99956.72;;;-2.54
69364;BMP280;56526;55.406;86.130;2022-10-30T01:50:12;99952.75;;;-2.50
69364;BMP280;56526;55.406;86.130;2022-10-30T01:53:27;99951.59;;;-2.47
69364;BMP280;56526;55.406;86.130;2022-10-30T01:59:30;99953.03;;;-2.38
69364;BMP280;56526;55.406;86.130;2022-10-30T02:02:02;99941.28;;;-2.34
69364;BMP280;56526;55.406;86.130;2022-10-30T02:04:29;99945.31;;;-2.32
69364;BMP280;56526;55.406;86.130;2022-10-30T02:06:57;99945.94;;;-2.30
69364;BMP280;56526;55.406;86.130;2022-10-30T02:09:23;99944.97;;;-2.29
69364;BMP280;56526;55.406;86.130;2022-10-30T02:11:51;99947.34;;;-2.27
69364;BMP280;56526;55.406;86.130;2022-10-30T02:14:25;99936.59;;;-2.24
69364;BMP280;56526;55.406;86.130;2022-10-30T02:16:56;99942.63;;;-2.17
69364;BMP280;56526;55.406;86.130;2022-10-30T02:19:23;99937.84;;;-2.13
69364;BMP280;56526;55.406;86.130;2022-10-30T02:21:50;99936.50;;;-2.09
69364;BMP280;56526;55.406;86.130;2022-10-30T02:24:17;99936.31;;;-2.08
69364;BMP280;56526;55.406;86.130;2022-10-30T02:26:44;99934.13;;;-2.04
69364;BMP280;56526;55.406;86.130;2022-10-30T02:29:10;99934.16;;;-1.98
69364;BMP280;56526;55.406;86.130;2022-10-30T02:31:36;99933.81;;;-1.88
69364;BMP280;56526;55.406;86.130;2022-10-30T02:34:03;99941.84;;;-1.83
69364;BMP280;56526;55.406;86.130;2022-10-30T02:36:30;99946.44;;;-1.78
69364;BMP280;56526;55.406;86.130;2022-10-30T02:38:57;99940.88;;;-1.75
69364;BMP280;56526;55.406;86.130;2022-10-30T02:41:23;99941.66;;;-1.75
69364;BMP280;56526;55.406;86.130;2022-10-30T02:43:50;99942.91;;;-1.71
69364;BMP280;56526;55.406;86.130;2022-10-30T02:46:18;99942.28;;;-1.66
69364;BMP280;56526;55.406;86.130;2022-10-30T02:48:45;99937.34;;;-1.61
69364;BMP280;56526;55.406;86.130;2022-10-30T02:51:11;99940.72;;;-1.60
69364;BMP280;56526;55.406;86.130;2022-10-30T02:53:37;99938.34;;;-1.55
69364;BMP280;56526;55.406;86.130;2022-10-30T02:56:05;99946.34;;;-1.50
69364;BMP280;56526;55.406;86.130;2022-10-30T02:58:34;99935.38;;;-1.46
69364;BMP280;56526;55.406;86.130;2022-10-30T03:01:18;99934.41;;;-1.45
69364;BMP280;56526;55.406;86.130;2022-10-30T03:03:45;99938.59;;;-1.44
69364;BMP280;56526;55.406;86.130;2022-10-30T03:06:13;99926.63;;;-1.45
69364;BMP280;56526;55.406;86.130;2022-10-30T03:08:42;99922.41;;;-1.46
69364;BMP280;56526;55.406;86.130;2022-10-30T03:11:11;99934.59;;;-1.39
69364;BMP280;56526;55.406;86.130;2022-10-30T03:13:38;99931.25;;;-1.33
69364;BMP280;56526;55.406;86.130;2022-10-30T03:16:07;99927.66;;;-1.26
69364;BMP280;56526;55.406;86.130;2022-10-30T03:18:36;99927.09;;;-1.15
69364;BMP280;56526;55.406;86.130;2022-10-30T03:21:06;99933.69;;;-1.12
69364;BMP280;56526;55.406;86.130;2022-10-30T03:23:33;99921.09;;;-1.08
69364;BMP280;56526;55.406;86.130;2022-10-30T03:25:59;99922.31;;;-1.04
69364;BMP280;56526;55.406;86.130;2022-10-30T03:28:28;99925.53;;;-0.96
69364;BMP280;56526;55.406;86.130;2022-10-30T03:31:06;99929.31;;;-0.85
69364;BMP280;56526;55.406;86.130;2022-10-30T03:33:34;99931.91;;;-0.72
69364;BMP280;56526;55.406;86.130;2022-10-30T03:36:02;99929.50;;;-0.60
69364;BMP280;56526;55.406;86.130;2022-10-30T03:38:29;99919.28;;;-0.48
69364;BMP280;56526;55.406;86.130;2022-10-30T03:40:55;99921.09;;;-0.36
69364;BMP280;56526;55.406;86.130;2022-10-30T03:43:22;99920.69;;;-0.26
69364;BMP280;56526;55.406;86.130;2022-10-30T03:45:51;99916.47;;;-0.14
69364;BMP280;56526;55.406;86.130;2022-10-30T03:48:20;99920.44;;;-0.05
69364;BMP280;56526;55.406;86.130;2022-10-30T03:50:48;99907.59;;;0.07
69364;BMP280;56526;55.406;86.130;2022-10-30T03:53:16;99913.00;;;0.06
69364;BMP280;56526;55.406;86.130;2022-10-30T03:55:43;99911.41;;;0.05
69364;BMP280;56526;55.406;86.130;2022-10-30T03:58:09;99907.59;;;0.07
69364;BMP280;56526;55.406;86.130;2022-10-30T04:00:36;99900.41;;;0.03
69364;BMP280;56526;55.406;86.130;2022-10-30T04:03:05;99902.81;;;0.04
69364;BMP280;56526;55.406;86.130;2022-10-30T04:05:32;99907.63;;;0.01
69364;BMP280;56526;55.406;86.130;2022-10-30T04:08:00;99898.81;;;0.02
69364;BMP280;56526;55.406;86.130;2022-10-30T04:10:28;99900.19;;;0.04
69364;BMP280;56526;55.406;86.130;2022-10-30T04:13:05;99893.19;;;0.11
69364;BMP280;56526;55.406;86.130;2022-10-30T04:15:32;99887.13;;;0.17
69364;BMP280;56526;55.406;86.130;2022-10-30T04:17:59;99891.97;;;0.14
69364;BMP280;56526;55.406;86.130;2022-10-30T04:20:26;99887.56;;;0.08
69364;BMP280;56526;55.406;86.130;2022-10-30T04:22:57;99884.97;;;0.08
69364;BMP280;56526;55.406;86.130;2022-10-30T04:25:26;99881.75;;;0.12
69364;BMP280;56526;55.406;86.130;2022-10-30T04:27:52;99886.53;;;0.15
69364;BMP280;56526;55.406;86.130;2022-10-30T04:30:19;99881.34;;;0.15
69364;BMP280;56526;55.406;86.130;2022-10-30T04:32:50;99883.72;;;0.17
69364;BMP280;56526;55.406;86.130;2022-10-30T04:35:20;99881.72;;;0.19
69364;BMP280;56526;55.406;86.130;2022-10-30T04:37:54;99885.13;;;0.19
69364;BMP280;56526;55.406;86.130;2022-10-30T04:40:23;99875.91;;;0.17
69364;BMP280;56526;55.406;86.130;2022-10-30T04:42:50;99873.31;;;0.17
69364;BMP280;56526;55.406;86.130;2022-10-30T04:45:17;99878.72;;;0.22
69364;BMP280;56526;55.406;86.130;2022-10-30T04:47:44;99869.91;;;0.23
69364;BMP280;56526;55.406;86.130;2022-10-30T04:50:11;99861.06;;;0.31
69364;BMP280;56526;55.406;86.130;2022-10-30T04:52:38;99866.38;;;0.36
69364;BMP280;56526;55.406;86.130;2022-10-30T04:55:05;99862.97;;;0.42
69364;BMP280;56526;55.406;86.130;2022-10-30T04:57:32;99862.09;;;0.48
69364;BMP280;56526;55.406;86.130;2022-10-30T04:59:59;99858.66;;;0.54
69364;BMP280;56526;55.406;86.130;2022-10-30T05:02:25;99853.31;;;0.74
69364;BMP280;56526;55.406;86.130;2022-10-30T05:04:51;99852.81;;;0.90
69364;BMP280;56526;55.406;86.130;2022-10-30T05:07:17;99855.50;;;1.02
69364;BMP280;56526;55.406;86.130;2022-10-30T05:09:44;99850.31;;;1.02
69364;BMP280;56526;55.406;86.130;2022-10-30T05:12:10;99846.84;;;1.08
69364;BMP280;56526;55.406;86.130;2022-10-30T05:14:37;99852.59;;;1.17
69364;BMP280;56526;55.406;86.130;2022-10-30T05:17:06;99849.34;;;1.39
69364;BMP280;56526;55.406;86.130;2022-10-30T05:19:33;99843.59;;;1.86
69364;BMP280;56526;55.406;86.130;2022-10-30T05:21:59;99844.44;;;2.40
69364;BMP280;56526;55.406;86.130;2022-10-30T05:24:25;99834.59;;;2.65
69364;BMP280;56526;55.406;86.130;2022-10-30T05:26:52;99830.28;;;2.59
69364;BMP280;56526;55.406;86.130;2022-10-30T05:29:18;99828.38;;;2.78
69364;BMP280;56526;55.406;86.130;2022-10-30T05:31:44;99814.38;;;3.07
69364;BMP280;56526;55.406;86.130;2022-10-30T05:34:10;99817.13;;;3.52
69364;BMP280;56526;55.406;86.130;2022-10-30T05:36:36;99812.22;;;4.30
69364;BMP280;56526;55.406;86.130;2022-10-30T05:39:03;99807.41;;;4.99
69364;BMP280;56526;55.406;86.130;2022-10-30T05:41:29;99804.34;;;4.63
69364;BMP280;56526;55.406;86.130;2022-10-30T05:43:55;99807.97;;;3.95
69364;BMP280;56526;55.406;86.130;2022-10-30T05:46:22;99810.19;;;4.03
69364;BMP280;56526;55.406;86.130;2022-10-30T05:48:48;99806.63;;;4.43
69364;BMP280;56526;55.406;86.130;2022-10-30T05:51:14;99801.81;;;4.90
69364;BMP280;56526;55.406;86.130;2022-10-30T05:53:40;99801.72;;;4.47
69364;BMP280;56526;55.406;86.130;2022-10-30T05:56:06;99799.25;;;3.61
69364;BMP280;56526;55.406;86.130;2022-10-30T05:58:32;99799.94;;;3.05
69364;BMP280;56526;55.406;86.130;2022-10-30T06:00:59;99795.31;;;2.83
69364;BMP280;56526;55.406;86.130;2022-10-30T06:03:25;99799.34;;;3.38
69364;BMP280;56526;55.406;86.130;2022-10-30T06:05:51;99806.31;;;4.39
69364;BMP280;56526;55.406;86.130;2022-10-30T06:08:18;99789.09;;;5.21
69364;BMP280;56526;55.406;86.130;2022-10-30T06:10:44;99785.34;;;5.65
69364;BMP280;56526;55.406;86.130;2022-10-30T06:13:10;99788.63;;;5.29
69364;BMP280;56526;55.406;86.130;2022-10-30T06:15:36;99785.00;;;4.69
69364;BMP280;56526;55.406;86.130;2022-10-30T06:18:03;99794.31;;;4.43
69364;BMP280;56526;55.406;86.130;2022-10-30T06:20:30;99787.09;;;4.67
69364;BMP280;56526;55.406;86.130;2022-10-30T06:23:04;99780.53;;;5.09
69364;BMP280;56526;55.406;86.130;2022-10-30T06:25:34;99769.38;;;5.40
69364;BMP280;56526;55.406;86.130;2022-10-30T06:28:01;99773.09;;;5.76
69364;BMP280;56526;55.406;86.130;2022-10-30T06:30:27;99769.38;;;6.41
69364;BMP280;56526;55.406;86.130;2022-10-30T06:33:02;99758.53;;;6.80
69364;BMP280;56526;55.406;86.130;2022-10-30T06:35:30;99767.66;;;6.62
69364;BMP280;56526;55.406;86.130;2022-10-30T06:37:57;99754.75;;;6.60
69364;BMP280;56526;55.406;86.130;2022-10-30T06:40:23;99753.66;;;6.51
69364;BMP280;56526;55.406;86.130;2022-10-30T06:42:51;99746.91;;;6.18
69364;BMP280;56526;55.406;86.130;2022-10-30T06:45:20;99747.06;;;6.07
69364;BMP280;56526;55.406;86.130;2022-10-30T06:47:48;99749.88;;;6.27
69364;BMP280;56526;55.406;86.130;2022-10-30T06:50:17;99747.59;;;6.46
69364;BMP280;56526;55.406;86.130;2022-10-30T06:52:44;99738.84;;;6.30
69364;BMP280;56526;55.406;86.130;2022-10-30T06:55:14;99744.22;;;6.08
69364;BMP280;56526;55.406;86.130;2022-10-30T06:57:40;99736.75;;;5.63
69364;BMP280;56526;55.406;86.130;2022-10-30T07:00:07;99737.91;;;4.96
69364;BMP280;56526;55.406;86.130;2022-10-30T07:02:37;99734.09;;;3.76
69364;BMP280;56526;55.406;86.130;2022-10-30T07:05:03;99730.63;;;3.02
69364;BMP280;56526;55.406;86.130;2022-10-30T07:07:32;99732.50;;;2.55
69364;BMP280;56526;55.406;86.130;2022-10-30T07:09:58;99725.59;;;2.25
69364;BMP280;56526;55.406;86.130;2022-10-30T07:12:25;99721.78;;;2.10
69364;BMP280;56526;55.406;86.130;2022-10-30T07:14:51;99720.19;;;1.97
69364;BMP280;56526;55.406;86.130;2022-10-30T07:17:18;99715.84;;;1.91
69364;BMP280;56526;55.406;86.130;2022-10-30T07:19:44;99710.09;;;2.12
69364;BMP280;56526;55.406;86.130;2022-10-30T07:22:10;99706.50;;;2.25
69364;BMP280;56526;55.406;86.130;2022-10-30T07:24:36;99700.72;;;2.23
69364;BMP280;56526;55.406;86.130;2022-10-30T07:27:04;99698.06;;;1.99
69364;BMP280;56526;55.406;86.130;2022-10-30T07:29:30;99694.63;;;1.76
69364;BMP280;56526;55.406;86.130;2022-10-30T07:31:56;99695.72;;;1.68
69364;BMP280;56526;55.406;86.130;2022-10-30T07:34:23;99676.53;;;1.62
69364;BMP280;56526;55.406;86.130;2022-10-30T07:36:49;99679.84;;;1.39
69364;BMP280;56526;55.406;86.130;2022-10-30T07:39:15;99684.19;;;1.15
69364;BMP280;56526;55.406;86.130;2022-10-30T07:41:41;99676.69;;;0.89
69364;BMP280;56526;55.406;86.130;2022-10-30T07:44:07;99668.06;;;0.70
69364;BMP280;56526;55.406;86.130;2022-10-30T07:46:34;99666.47;;;0.69
69364;BMP280;56526;55.406;86.130;2022-10-30T07:49:00;99662.41;;;0.73
69364;BMP280;56526;55.406;86.130;2022-10-30T07:51:26;99663.88;;;0.69
69364;BMP280;56526;55.406;86.130;2022-10-30T07:53:52;99661.31;;;0.63
69364;BMP280;56526;55.406;86.130;2022-10-30T07:56:19;99661.03;;;0.52
69364;BMP280;56526;55.406;86.130;2022-10-30T07:58:45;99661.88;;;0.46
69364;BMP280;56526;55.406;86.130;2022-10-30T08:01:11;99654.50;;;0.43
69364;BMP280;56526;55.406;86.130;2022-10-30T08:03:37;99648.75;;;0.35
69364;BMP280;56526;55.406;86.130;2022-10-30T08:06:03;99643.78;;;0.33
69364;BMP280;56526;55.406;86.130;2022-10-30T08:08:30;99641.53;;;0.37
69364;BMP280;56526;55.406;86.130;2022-10-30T08:10:56;99642.94;;;0.39
69364;BMP280;56526;55.406;86.130;2022-10-30T08:13:22;99635.53;;;0.36
69364;BMP280;56526;55.406;86.130;2022-10-30T08:15:48;99631.72;;;0.39
69364;BMP280;56526;55.406;86.130;2022-10-30T08:18:15;99632.09;;;0.42
69364;BMP280;56526;55.406;86.130;2022-10-30T08:20:41;99631.41;;;0.47
69364;BMP280;56526;55.406;86.130;2022-10-30T08:23:07;99624.69;;;0.57
69364;BMP280;56526;55.406;86.130;2022-10-30T08:25:34;99623.06;;;0.63
69364;BMP280;56526;55.406;86.130;2022-10-30T08:28:03;99615.03;;;0.65
69364;BMP280;56526;55.406;86.130;2022-10-30T08:30:32;99622.53;;;0.73
69364;BMP280;56526;55.406;86.130;2022-10-30T08:33:01;99610.91;;;0.75
69364;BMP280;56526;55.406;86.130;2022-10-30T08:35:32;99614.09;;;0.77
69364;BMP280;56526;55.406;86.130;2022-10-30T08:37:59;99610.09;;;0.75
69364;BMP280;56526;55.406;86.130;2022-10-30T08:40:26;99609.19;;;0.69
69364;BMP280;56526;55.406;86.130;2022-10-30T08:42:56;99607.38;;;0.51
69364;BMP280;56526;55.406;86.130;2022-10-30T08:45:25;99606.69;;;0.38
69364;BMP280;56526;55.406;86.130;2022-10-30T08:48:04;99593.22;;;0.29
69364;BMP280;56526;55.406;86.130;2022-10-30T08:50:32;99601.88;;;0.23
69364;BMP280;56526;55.406;86.130;2022-10-30T08:53:03;99595.56;;;0.12
69364;BMP280;56526;55.406;86.130;2022-10-30T08:55:31;99589.41;;;0.07
69364;BMP280;56526;55.406;86.130;2022-10-30T08:57:58;99596.19;;;0.08
69364;BMP280;56526;55.406;86.130;2022-10-30T09:00:25;99597.41;;;0.05
69364;BMP280;56526;55.406;86.130;2022-10-30T09:02:52;99600.38;;;0.09
69364;BMP280;56526;55.406;86.130;2022-10-30T09:05:18;99586.53;;;0.15
69364;BMP280;56526;55.406;86.130;2022-10-30T09:07:45;99587.03;;;0.23
69364;BMP280;56526;55.406;86.130;2022-10-30T09:10:12;99582.38;;;0.32
69364;BMP280;56526;55.406;86.130;2022-10-30T09:12:39;99587.25;;;0.40
69364;BMP280;56526;55.406;86.130;2022-10-30T09:15:06;99574.59;;;0.44
69364;BMP280;56526;55.406;86.130;2022-10-30T09:17:32;99581.97;;;0.47
69364;BMP280;56526;55.406;86.130;2022-10-30T09:19:59;99570.84;;;0.40
69364;BMP280;56526;55.406;86.130;2022-10-30T09:22:25;99567.75;;;0.31
69364;BMP280;56526;55.406;86.130;2022-10-30T09:24:51;99568.25;;;0.21
69364;BMP280;56526;55.406;86.130;2022-10-30T09:27:17;99568.53;;;0.13
69364;BMP280;56526;55.406;86.130;2022-10-30T09:29:43;99564.97;;;0.08
69364;BMP280;56526;55.406;86.130;2022-10-30T09:32:11;99565.63;;;0.03
69364;BMP280;56526;55.406;86.130;2022-10-30T09:34:37;99552.84;;;0.02
69364;BMP280;56526;55.406;86.130;2022-10-30T09:37:03;99552.25;;;-0.01
69364;BMP280;56526;55.406;86.130;2022-10-30T09:39:30;99552.09;;;-0.06
69364;BMP280;56526;55.406;86.130;2022-10-30T09:51:37;99545.69;;;-0.28
69364;BMP280;56526;55.406;86.130;2022-10-30T09:56:58;99535.53;;;-0.36
69364;BMP280;56526;55.406;86.130;2022-10-30T10:05:49;99521.84;;;-0.50
69364;BMP280;56526;55.406;86.130;2022-10-30T10:08:25;99519.66;;;-0.53
69364;BMP280;56526;55.406;86.130;2022-10-30T10:11:03;99518.06;;;-0.54
69364;BMP280;56526;55.406;86.130;2022-10-30T10:13:36;99524.06;;;-0.53
69364;BMP280;56526;55.406;86.130;2022-10-30T10:16:39;99507.91;;;-0.55
69364;BMP280;56526;55.406;86.130;2022-10-30T10:24:57;99500.31;;;-0.57
69364;BMP280;56526;55.406;86.130;2022-10-30T10:30:13;99498.34;;;-0.62
69364;BMP280;56526;55.406;86.130;2022-10-30T10:32:58;99493.97;;;-0.68
69364;BMP280;56526;55.406;86.130;2022-10-30T10:50:31;99481.56;;;-1.22
69364;BMP280;56526;55.406;86.130;2022-10-30T10:53:34;99472.22;;;-1.30
69364;BMP280;56526;55.406;86.130;2022-10-30T10:56:02;99468.63;;;-1.35
69364;BMP280;56526;55.406;86.130;2022-10-30T10:58:42;99465.06;;;-1.41
69364;BMP280;56526;55.406;86.130;2022-10-30T11:01:33;99451.09;;;-1.47
69364;BMP280;56526;55.406;86.130;2022-10-30T11:04:07;99447.56;;;-1.52
69364;BMP280;56526;55.406;86.130;2022-10-30T11:06:48;99439.19;;;-1.54
69364;BMP280;56526;55.406;86.130;2022-10-30T11:09:20;99438.59;;;-1.56
69364;BMP280;56526;55.406;86.130;2022-10-30T11:11:49;99432.22;;;-1.60
69364;BMP280;56526;55.406;86.130;2022-10-30T11:14:24;99427.47;;;-1.63
69364;BMP280;56526;55.406;86.130;2022-10-30T11:17:19;99412.50;;;-1.68
69364;BMP280;56526;55.406;86.130;2022-10-30T11:19:50;99420.13;;;-1.73
69364;BMP280;56526;55.406;86.130;2022-10-30T11:22:42;99418.13;;;-1.78
69364;BMP280;56526;55.406;86.130;2022-10-30T11:25:20;99416.19;;;-1.82
69364;BMP280;56526;55.406;86.130;2022-10-30T11:27:53;99414.78;;;-1.85
69364;BMP280;56526;55.406;86.130;2022-10-30T11:30:23;99410.78;;;-1.87
69364;BMP280;56526;55.406;86.130;2022-10-30T11:32:51;99404.00;;;-1.88
69364;BMP280;56526;55.406;86.130;2022-10-30T11:35:19;99398.03;;;-1.89
69364;BMP280;56526;55.406;86.130;2022-10-30T11:37:50;99389.44;;;-1.89
69364;BMP280;56526;55.406;86.130;2022-10-30T11:40:22;99386.06;;;-1.90
69364;BMP280;56526;55.406;86.130;2022-10-30T11:43:00;99384.47;;;-1.91
69364;BMP280;56526;55.406;86.130;2022-10-30T11:45:31;99383.28;;;-1.95
69364;BMP280;56526;55.406;86.130;2022-10-30T11:48:00;99374.13;;;-1.98
69364;BMP280;56526;55.406;86.130;2022-10-30T11:50:31;99374.53;;;-2.01
69364;BMP280;56526;55.406;86.130;2022-10-30T11:53:00;99371.19;;;-2.08
69364;BMP280;56526;55.406;86.130;2022-10-30T11:55:34;99368.00;;;-2.10
69364;BMP280;56526;55.406;86.130;2022-10-30T11:58:05;99370.81;;;-2.11
69364;BMP280;56526;55.406;86.130;2022-10-30T12:00:33;99366.22;;;-2.16
69364;BMP280;56526;55.406;86.130;2022-10-30T12:03:04;99360.44;;;-2.18
69364;BMP280;56526;55.406;86.130;2022-10-30T12:06:07;99356.88;;;-2.23
69364;BMP280;56526;55.406;86.130;2022-10-30T12:09:09;99357.28;;;-2.27
69364;BMP280;56526;55.406;86.130;2022-10-30T12:11:54;99355.28;;;-2.31
69364;BMP280;56526;55.406;86.130;2022-10-30T12:14:22;99347.91;;;-2.34
69364;BMP280;56526;55.406;86.130;2022-10-30T12:16:50;99341.56;;;-2.38
69364;BMP280;56526;55.406;86.130;2022-10-30T12:19:19;99339.56;;;-2.43
69364;BMP280;56526;55.406;86.130;2022-10-30T12:21:49;99342.78;;;-2.47
69364;BMP280;56526;55.406;86.130;2022-10-30T12:24:37;99336.59;;;-2.53
69364;BMP280;56526;55.406;86.130;2022-10-30T12:27:11;99338.63;;;-2.62
69364;BMP280;56526;55.406;86.130;2022-10-30T12:32:25;99334.44;;;-2.76
69364;BMP280;56526;55.406;86.130;2022-10-30T12:35:14;99342.00;;;-2.81
69364;BMP280;56526;55.406;86.130;2022-10-30T12:37:45;99340.84;;;-2.85
69364;BMP280;56526;55.406;86.130;2022-10-30T12:40:20;99338.47;;;-2.87
69364;BMP280;56526;55.406;86.130;2022-10-30T12:43:18;99338.84;;;-2.90
69364;BMP280;56526;55.406;86.130;2022-10-30T12:45:45;99336.25;;;-2.90
69364;BMP280;56526;55.406;86.130;2022-10-30T12:51:45;99330.69;;;-2.93
69364;BMP280;56526;55.406;86.130;2022-10-30T12:54:35;99318.94;;;-2.96
69364;BMP280;56526;55.406;86.130;2022-10-30T12:57:11;99324.09;;;-2.96
69364;BMP280;56526;55.406;86.130;2022-10-30T13:00:16;99312.53;;;-3.00
69364;BMP280;56526;55.406;86.130;2022-10-30T13:05:54;99307.97;;;-3.04
69364;BMP280;56526;55.406;86.130;2022-10-30T13:09:23;99312.78;;;-3.08
69364;BMP280;56526;55.406;86.130;2022-10-30T13:11:50;99298.63;;;-3.12
69364;BMP280;56526;55.406;86.130;2022-10-30T13:14:55;99304.00;;;-3.14
69364;BMP280;56526;55.406;86.130;2022-10-30T13:17:23;99293.44;;;-3.19
69364;BMP280;56526;55.406;86.130;2022-10-30T13:19:49;99294.66;;;-3.21
69364;BMP280;56526;55.406;86.130;2022-10-30T13:22:27;99285.69;;;-3.25
69364;BMP280;56526;55.406;86.130;2022-10-30T13:28:03;99284.69;;;-3.31
69364;BMP280;56526;55.406;86.130;2022-10-30T13:30:39;99274.94;;;-3.35
69364;BMP280;56526;55.406;86.130;2022-10-30T13:33:23;99277.13;;;-3.39
69364;BMP280;56526;55.406;86.130;2022-10-30T13:36:10;99280.13;;;-3.42
69364;BMP280;56526;55.406;86.130;2022-10-30T13:41:55;99286.69;;;-3.46
69364;BMP280;56526;55.406;86.130;2022-10-30T13:44:44;99272.19;;;-3.47
69364;BMP280;56526;55.406;86.130;2022-10-30T13:54:24;99249.06;;;-3.55
69364;BMP280;56526;55.406;86.130;2022-10-30T13:56:54;99243.47;;;-3.59
69364;BMP280;56526;55.406;86.130;2022-10-30T13:59:42;99243.69;;;-3.60
69364;BMP280;56526;55.406;86.130;2022-10-30T14:03:10;99243.09;;;-3.62
69364;BMP280;56526;55.406;86.130;2022-10-30T14:10:47;99233.75;;;-3.70
69364;BMP280;56526;55.406;86.130;2022-10-30T14:13:21;99234.75;;;-3.71
69364;BMP280;56526;55.406;86.130;2022-10-30T14:15:52;99222.41;;;-3.76
69364;BMP280;56526;55.406;86.130;2022-10-30T14:18:31;99225.34;;;-3.79
69364;BMP280;56526;55.406;86.130;2022-10-30T14:21:37;99216.22;;;-3.81
69364;BMP280;56526;55.406;86.130;2022-10-30T14:32:01;99209.84;;;-3.92
69364;BMP280;56526;55.406;86.130;2022-10-30T14:34:45;99213.00;;;-3.97
69364;BMP280;56526;55.406;86.130;2022-10-30T14:39:50;99213.81;;;-4.03
69364;BMP280;56526;55.406;86.130;2022-10-30T14:42:38;99205.25;;;-4.03
69364;BMP280;56526;55.406;86.130;2022-10-30T14:45:31;99208.03;;;-4.05
69364;BMP280;56526;55.406;86.130;2022-10-30T14:48:29;99210.19;;;-4.08
69364;BMP280;56526;55.406;86.130;2022-10-30T14:54:00;99209.59;;;-4.10
69364;BMP280;56526;55.406;86.130;2022-10-30T14:56:41;99211.41;;;-4.11
69364;BMP280;56526;55.406;86.130;2022-10-30T15:10:14;99200.47;;;-4.13
69364;BMP280;56526;55.406;86.130;2022-10-30T15:13:12;99201.84;;;-4.17
69364;BMP280;56526;55.406;86.130;2022-10-30T15:15:55;99199.44;;;-4.18
69364;BMP280;56526;55.406;86.130;2022-10-30T15:18:25;99200.41;;;-4.20
69364;BMP280;56526;55.406;86.130;2022-10-30T15:20:53;99200.63;;;-4.21
69364;BMP280;56526;55.406;86.130;2022-10-30T15:23:28;99193.28;;;-4.24
69364;BMP280;56526;55.406;86.130;2022-10-30T15:25:58;99194.25;;;-4.25
69364;BMP280;56526;55.406;86.130;2022-10-30T15:28:32;99190.88;;;-4.26
69364;BMP280;56526;55.406;86.130;2022-10-30T15:33:48;99189.09;;;-4.32
69364;BMP280;56526;55.406;86.130;2022-10-30T15:36:17;99176.38;;;-4.33
69364;BMP280;56526;55.406;86.130;2022-10-30T15:39:01;99177.38;;;-4.34
69364;BMP280;56526;55.406;86.130;2022-10-30T15:41:48;99176.75;;;-4.36
69364;BMP280;56526;55.406;86.130;2022-10-30T15:44:31;99168.81;;;-4.35
69364;BMP280;56526;55.406;86.130;2022-10-30T15:47:01;99175.19;;;-4.31
69364;BMP280;56526;55.406;86.130;2022-10-30T15:49:33;99167.44;;;-4.31
69364;BMP280;56526;55.406;86.130;2022-10-30T15:52:03;99165.06;;;-4.32
69364;BMP280;56526;55.406;86.130;2022-10-30T15:54:42;99165.25;;;-4.34
69364;BMP280;56526;55.406;86.130;2022-10-30T15:57:17;99161.06;;;-4.35
69364;BMP280;56526;55.406;86.130;2022-10-30T15:59:51;99157.69;;;-4.35
69364;BMP280;56526;55.406;86.130;2022-10-30T16:02:24;99155.88;;;-4.35
69364;BMP280;56526;55.406;86.130;2022-10-30T16:04:51;99158.47;;;-4.35
69364;BMP280;56526;55.406;86.130;2022-10-30T16:07:23;99156.09;;;-4.36
69364;BMP280;56526;55.406;86.130;2022-10-30T16:09:58;99152.72;;;-4.37
69364;BMP280;56526;55.406;86.130;2022-10-30T16:12:26;99150.13;;;-4.37
69364;BMP280;56526;55.406;86.130;2022-10-30T16:14:56;99148.53;;;-4.38
69364;BMP280;56526;55.406;86.130;2022-10-30T16:17:25;99139.38;;;-4.40
69364;BMP280;56526;55.406;86.130;2022-10-30T16:19:55;99134.41;;;-4.42
69364;BMP280;56526;55.406;86.130;2022-10-30T16:22:32;99116.56;;;-4.43